Time;durP1;ratioP1;P1;durP2;ratioP2;P2;SDS_P1;SDS_P2;PMS_P1;PMS_P2;Temp;Humidity;BMP_temperature;BMP_pressure;BME280_temperature;BME280_humidity;BME280_pressure;Samples;Min_cycle;Max_cycle;Signal;HPM_P1;HPM_P2
2022/09/22 00:01:32;;;;;;;5.90;1.47;;;13.20;74.60;;;;;;5023064;28;20203;-68
2022/09/22 00:04:04;;;;;;;2.10;1.40;;;13.20;74.70;;;;;;5029274;28;20696;-68
2022/09/22 00:06:46;;;;;;;3.47;1.03;;;13.20;74.50;;;;;;5031694;28;20207;-68
2022/09/22 00:09:15;;;;;;;1.90;1.10;;;13.10;74.60;;;;;;5031191;28;20212;-68
2022/09/22 00:11:45;;;;;;;5.30;1.33;;;13.10;74.80;;;;;;5024166;28;20600;-68
2022/09/22 00:14:16;;;;;;;3.70;1.20;;;13.10;75.00;;;;;;5027004;28;20303;-71
2022/09/22 00:16:46;;;;;;;4.77;1.60;;;13.10;75.10;;;;;;5022030;28;20269;-71
2022/09/22 00:19:16;;;;;;;3.27;1.30;;;13.10;75.00;;;;;;5024951;28;20268;-71
2022/09/22 00:21:44;;;;;;;5.30;1.50;;;13.10;75.50;;;;;;5023426;28;20262;-71
2022/09/22 00:24:11;;;;;;;8.87;1.80;;;13.10;74.80;;;;;;5023641;28;20212;-71
2022/09/22 00:26:39;;;;;;;1.43;1.30;;;13.00;74.80;;;;;;5028619;28;20226;-71
2022/09/22 00:29:08;;;;;;;2.70;1.50;;;13.00;74.70;;;;;;5015201;28;20215;-71
2022/09/22 00:31:37;;;;;;;2.47;1.40;;;13.00;74.80;;;;;;5032624;28;20208;-72
2022/09/22 00:34:05;;;;;;;3.87;1.47;;;13.00;75.40;;;;;;5028484;28;20292;-71
2022/09/22 00:36:32;;;;;;;6.17;2.07;;;13.00;75.50;;;;;;5028326;28;20570;-71
2022/09/22 00:39:00;;;;;;;6.17;1.90;;;13.00;75.80;;;;;;5022923;28;20276;-71
2022/09/22 00:41:35;;;;;;;6.77;1.53;;;13.00;75.80;;;;;;5029356;28;20241;-71
2022/09/22 00:44:19;;;;;;;1.67;1.37;;;13.00;75.70;;;;;;5030563;28;20204;-72
2022/09/22 00:47:00;;;;;;;4.47;1.20;;;12.90;75.50;;;;;;5032052;28;20638;-71
2022/09/22 00:49:51;;;;;;;2.03;1.53;;;12.90;75.40;;;;;;5030081;28;20210;-71
2022/09/22 00:52:27;;;;;;;1.40;1.30;;;12.90;75.80;;;;;;5028973;28;20211;-71
2022/09/22 00:54:57;;;;;;;4.23;1.67;;;12.80;76.10;;;;;;5026490;28;20660;-71
2022/09/22 00:57:30;;;;;;;1.80;1.63;;;12.80;75.90;;;;;;5029880;28;20267;-71
2022/09/22 00:59:58;;;;;;;6.57;2.13;;;12.80;76.20;;;;;;5023395;28;20209;-71
2022/09/22 01:02:25;;;;;;;3.57;1.93;;;12.80;76.50;;;;;;5026323;28;20638;-71
2022/09/22 01:04:52;;;;;;;7.73;2.40;;;12.70;76.30;;;;;;5024197;28;20255;-71
2022/09/22 01:07:22;;;;;;;3.73;1.70;;;12.70;76.20;;;;;;5022828;28;20234;-71
2022/09/22 01:09:49;;;;;;;5.10;2.03;;;12.70;76.20;;;;;;5030960;28;20202;-67
2022/09/22 01:12:16;;;;;;;2.23;1.67;;;12.60;76.40;;;;;;5023970;28;20213;-67
2022/09/22 01:14:45;;;;;;;3.53;1.63;;;12.60;76.70;;;;;;5026359;28;20235;-67
2022/09/22 01:17:31;;;;;;;5.00;1.90;;;12.60;77.10;;;;;;5018925;28;20217;-67
2022/09/22 01:20:04;;;;;;;2.80;1.50;;;12.50;77.30;;;;;;5021129;28;20212;-67
2022/09/22 01:22:48;;;;;;;5.83;1.90;;;12.50;77.40;;;;;;5021749;28;20209;-67
2022/09/22 01:25:27;;;;;;;3.00;1.50;;;12.50;77.90;;;;;;5020063;28;20266;-67
2022/09/22 01:28:14;;;;;;;2.70;1.60;;;12.40;78.10;;;;;;5018908;28;20198;-67
2022/09/22 01:30:48;;;;;;;5.43;1.77;;;12.40;78.30;;;;;;5023271;28;20191;-67
2022/09/22 01:33:45;;;;;;;11.07;2.37;;;12.40;78.10;;;;;;5026557;28;20286;-66
2022/09/22 01:36:21;;;;;;;12.20;2.33;;;12.40;78.10;;;;;;5025096;28;20275;-66
2022/09/22 01:39:19;;;;;;;1.77;1.67;;;12.40;78.10;;;;;;5026355;28;20208;-66
2022/09/22 01:41:58;;;;;;;5.37;1.93;;;12.30;78.20;;;;;;5029225;28;20242;-67
2022/09/22 01:44:54;;;;;;;1.60;1.50;;;12.30;78.10;;;;;;5024149;28;20211;-67
2022/09/22 01:47:39;;;;;;;9.43;2.00;;;12.30;78.00;;;;;;5023797;28;20209;-67
2022/09/22 01:50:29;;;;;;;6.17;1.80;;;12.30;77.80;;;;;;5016661;28;20201;-66
2022/09/22 01:53:00;;;;;;;2.13;1.70;;;12.20;78.00;;;;;;5017867;28;20222;-66
2022/09/22 01:55:32;;;;;;;4.80;1.90;;;12.20;78.30;;;;;;5030852;28;20624;-67
2022/09/22 01:58:18;;;;;;;6.57;1.73;;;12.20;78.60;;;;;;5025968;28;20532;-67
2022/09/22 02:00:52;;;;;;;5.23;2.07;;;12.20;78.70;;;;;;5025554;28;20311;-66
2022/09/22 02:03:26;;;;;;;4.83;2.03;;;12.20;78.60;;;;;;5023343;28;20536;-66
2022/09/22 02:05:56;;;;;;;1.77;1.50;;;12.20;78.50;;;;;;5023933;28;20212;-66
2022/09/22 02:08:37;;;;;;;5.10;2.33;;;12.10;78.60;;;;;;5025414;28;20250;-66
2022/09/22 02:11:14;;;;;;;2.80;1.70;;;12.10;78.70;;;;;;5027041;28;20581;-66
2022/09/22 02:13:45;;;;;;;5.37;1.93;;;12.20;78.80;;;;;;5021565;28;20722;-71
2022/09/22 02:16:14;;;;;;;4.70;1.80;;;12.20;78.80;;;;;;5028772;28;20200;-70
2022/09/22 02:18:52;;;;;;;4.10;2.00;;;12.10;79.00;;;;;;5028236;28;20232;-70
2022/09/22 02:21:23;;;;;;;3.33;1.57;;;12.10;79.00;;;;;;5031134;28;20209;-70
2022/09/22 02:23:51;;;;;;;4.33;2.17;;;12.10;79.00;;;;;;5025329;28;20253;-70
2022/09/22 02:26:28;;;;;;;3.63;1.80;;;12.10;78.90;;;;;;5024824;28;20210;-70
2022/09/22 02:29:02;;;;;;;5.87;2.23;;;12.10;78.90;;;;;;5022682;28;20200;-70
2022/09/22 02:31:34;;;;;;;5.40;1.90;;;12.00;79.10;;;;;;5029943;28;20211;-70
2022/09/22 02:34:02;;;;;;;3.53;1.90;;;12.00;79.60;;;;;;5022632;28;20218;-70
2022/09/22 02:36:46;;;;;;;7.10;2.27;;;12.00;79.90;;;;;;5020776;28;20483;-70
2022/09/22 02:39:25;;;;;;;3.17;2.20;;;11.90;80.10;;;;;;5025707;28;20211;-70
2022/09/22 02:42:19;;;;;;;4.33;2.20;;;12.00;80.30;;;;;;5025459;28;20199;-70
2022/09/22 02:45:08;;;;;;;7.03;1.93;;;12.00;80.30;;;;;;5023505;28;20211;-71
2022/09/22 02:47:51;;;;;;;2.47;2.10;;;12.00;80.20;;;;;;5029202;28;20205;-70
2022/09/22 02:50:21;;;;;;;4.13;2.20;;;12.00;80.30;;;;;;5023513;28;20219;-70
2022/09/22 02:52:51;;;;;;;8.47;2.40;;;12.00;80.40;;;;;;5025619;28;20207;-70
2022/09/22 02:55:19;;;;;;;2.97;2.00;;;12.00;80.50;;;;;;5026319;28;20287;-70
2022/09/22 02:57:46;;;;;;;3.47;2.43;;;12.00;80.50;;;;;;5022537;28;20624;-70
2022/09/22 03:00:13;;;;;;;2.50;2.23;;;12.00;80.30;;;;;;5029186;28;20204;-70
2022/09/22 03:02:40;;;;;;;4.43;2.40;;;12.00;80.40;;;;;;5027748;28;20208;-70
2022/09/22 03:05:07;;;;;;;3.60;2.20;;;12.00;80.30;;;;;;5030363;28;20202;-70
2022/09/22 03:07:34;;;;;;;3.30;2.63;;;12.00;80.40;;;;;;5028516;28;20221;-70
2022/09/22 03:10:01;;;;;;;2.30;2.10;;;12.00;80.40;;;;;;5026260;28;20222;-69
2022/09/22 03:12:28;;;;;;;5.03;2.87;;;12.00;80.40;;;;;;5028214;28;20203;-71
2022/09/22 03:14:55;;;;;;;4.17;2.53;;;12.00;80.20;;;;;;5023193;28;20278;-70
2022/09/22 03:17:22;;;;;;;2.47;2.27;;;12.00;80.30;;;;;;5024803;28;20309;-70
2022/09/22 03:19:49;;;;;;;4.87;2.87;;;12.00;80.30;;;;;;5022133;28;20494;-70
2022/09/22 03:22:16;;;;;;;7.80;3.53;;;12.00;80.50;;;;;;5026181;28;20225;-70
2022/09/22 03:24:43;;;;;;;5.53;2.93;;;12.00;80.60;;;;;;5027926;28;20641;-70
2022/09/22 03:27:10;;;;;;;4.97;2.90;;;12.00;80.60;;;;;;5023345;28;20201;-70
2022/09/22 03:29:37;;;;;;;5.63;2.87;;;12.00;80.60;;;;;;5025579;28;20673;-70
2022/09/22 03:32:04;;;;;;;2.93;2.63;;;11.90;80.60;;;;;;5020901;28;20258;-70
2022/09/22 03:34:31;;;;;;;7.43;2.53;;;12.00;80.80;;;;;;5019796;28;20657;-70
2022/09/22 03:36:58;;;;;;;5.43;3.03;;;11.90;80.70;;;;;;5023045;28;20234;-71
2022/09/22 03:39:25;;;;;;;2.70;2.50;;;12.00;80.80;;;;;;5019611;28;20197;-70
2022/09/22 03:41:52;;;;;;;3.37;3.07;;;11.90;80.70;;;;;;5022955;28;20292;-70
2022/09/22 03:44:19;;;;;;;2.50;2.30;;;11.90;80.70;;;;;;5024979;28;20209;-70
2022/09/22 03:46:46;;;;;;;2.73;2.53;;;11.90;80.90;;;;;;5018787;28;20204;-71
2022/09/22 03:49:13;;;;;;;3.40;3.00;;;11.90;81.00;;;;;;5021309;28;20205;-70
2022/09/22 03:51:40;;;;;;;3.43;2.93;;;11.90;81.20;;;;;;5025780;28;20227;-70
2022/09/22 03:54:07;;;;;;;3.70;3.03;;;11.90;81.30;;;;;;5027090;28;20698;-71
2022/09/22 03:56:34;;;;;;;3.90;3.07;;;11.90;81.20;;;;;;5023701;28;20226;-70
2022/09/22 03:59:01;;;;;;;3.40;3.10;;;11.90;81.20;;;;;;5021768;28;20641;-70
2022/09/22 04:01:28;;;;;;;8.20;3.40;;;11.90;81.10;;;;;;5024578;28;20206;-70
2022/09/22 04:03:55;;;;;;;4.70;3.30;;;11.80;80.90;;;;;;5030016;28;20240;-70
2022/09/22 04:06:22;;;;;;;3.63;3.33;;;11.80;80.70;;;;;;5024544;28;20204;-70
2022/09/22 04:08:50;;;;;;;3.47;3.00;;;11.80;80.80;;;;;;5022117;28;20197;-70
2022/09/22 04:11:17;;;;;;;4.67;3.73;;;11.80;81.70;;;;;;5022982;28;20276;-71
2022/09/22 04:13:44;;;;;;;4.37;3.23;;;11.80;81.20;;;;;;5025101;28;20292;-70
2022/09/22 04:16:12;;;;;;;5.13;3.77;;;11.80;81.30;;;;;;5012201;28;20196;-70
2022/09/22 04:18:39;;;;;;;5.97;3.37;;;11.80;81.30;;;;;;5023661;28;20603;-70
2022/09/22 04:21:06;;;;;;;4.03;3.03;;;11.80;81.20;;;;;;5025128;28;20213;-70
2022/09/22 04:23:34;;;;;;;5.37;3.73;;;11.70;81.00;;;;;;5028583;28;20244;-70
2022/09/22 04:26:02;;;;;;;5.77;3.73;;;11.70;81.10;;;;;;5037023;28;20205;-71
2022/09/22 04:28:30;;;;;;;9.97;3.90;;;11.70;81.10;;;;;;5031865;28;20238;-70
2022/09/22 04:30:57;;;;;;;5.23;4.17;;;11.70;81.10;;;;;;5031256;28;20649;-70
2022/09/22 04:33:25;;;;;;;6.60;4.10;;;11.60;81.20;;;;;;5030541;28;20659;-70
2022/09/22 04:35:52;;;;;;;8.30;3.87;;;11.60;81.20;;;;;;5023556;28;20646;-71
2022/09/22 04:38:19;;;;;;;6.70;4.00;;;11.60;81.30;;;;;;5030901;28;20630;-70
2022/09/22 04:40:48;;;;;;;7.27;4.80;;;11.50;81.30;;;;;;5024147;28;20214;-70
2022/09/22 04:43:15;;;;;;;6.37;4.70;;;11.50;81.50;;;;;;5028413;28;20208;-70
2022/09/22 04:45:47;;;;;;;6.80;4.90;;;11.50;81.60;;;;;;5031744;28;20565;-70
2022/09/22 04:48:15;;;;;;;6.17;4.83;;;11.40;81.70;;;;;;5027598;28;21291;-70
2022/09/22 04:50:42;;;;;;;5.90;4.10;;;11.40;81.90;;;;;;5029643;28;20209;-70
2022/09/22 04:53:14;;;;;;;5.57;4.50;;;11.40;82.10;;;;;;5025843;28;20520;-70
2022/09/22 04:55:41;;;;;;;4.70;4.17;;;11.30;82.30;;;;;;5029261;28;20247;-70
2022/09/22 04:58:08;;;;;;;6.03;4.20;;;11.30;82.40;;;;;;5030034;28;20215;-70
2022/09/22 05:00:35;;;;;;;5.03;4.13;;;11.30;82.60;;;;;;5032371;28;20527;-70
2022/09/22 05:03:11;;;;;;;4.83;3.73;;;11.30;82.70;;;;;;5029807;28;20212;-70
2022/09/22 05:05:38;;;;;;;7.37;4.27;;;11.30;82.80;;;;;;5031824;28;20212;-70
2022/09/22 05:08:06;;;;;;;6.60;3.93;;;11.30;82.90;;;;;;5032526;28;20611;-71
2022/09/22 05:10:35;;;;;;;6.07;4.90;;;11.30;82.80;;;;;;5023619;28;20217;-70
2022/09/22 05:13:03;;;;;;;9.53;4.03;;;11.30;82.70;;;;;;5028387;28;20230;-70
2022/09/22 05:15:33;;;;;;;5.47;3.63;;;11.30;82.80;;;;;;5024232;28;20295;-70
2022/09/22 05:18:01;;;;;;;6.23;4.10;;;11.30;82.90;;;;;;5027497;28;20312;-70
2022/09/22 05:20:28;;;;;;;6.20;3.87;;;11.30;82.90;;;;;;5024164;28;20203;-70
2022/09/22 05:22:55;;;;;;;7.70;4.10;;;11.30;83.10;;;;;;5036136;28;20197;-70
2022/09/22 05:25:22;;;;;;;4.83;3.77;;;11.30;83.20;;;;;;5025923;28;20652;-70
2022/09/22 05:27:55;;;;;;;6.00;4.03;;;11.30;83.10;;;;;;5026572;28;20203;-70
2022/09/22 05:30:24;;;;;;;6.47;4.60;;;11.30;83.40;;;;;;5026331;28;20217;-70
2022/09/22 05:32:51;;;;;;;5.17;4.33;;;11.40;83.50;;;;;;5030291;28;20651;-70
2022/09/22 05:35:21;;;;;;;5.67;5.07;;;11.50;83.60;;;;;;5027137;28;20292;-70
2022/09/22 05:37:50;;;;;;;7.47;4.37;;;11.50;83.40;;;;;;5028225;28;20439;-70
2022/09/22 05:40:17;;;;;;;6.10;4.07;;;11.60;84.20;;;;;;5035817;28;20275;-70
2022/09/22 05:42:47;;;;;;;5.30;3.83;;;11.70;83.40;;;;;;5024620;28;20593;-70
2022/09/22 05:45:15;;;;;;;6.50;4.63;;;11.80;83.20;;;;;;5026164;28;20236;-70
2022/09/22 05:47:42;;;;;;;7.00;4.27;;;11.90;83.10;;;;;;5026952;28;20225;-70
2022/09/22 05:50:11;;;;;;;7.50;4.47;;;12.00;83.20;;;;;;5023335;28;20208;-70
2022/09/22 05:52:39;;;;;;;6.17;4.70;;;12.10;83.00;;;;;;5026463;28;20217;-70
2022/09/22 05:55:07;;;;;;;6.47;4.50;;;12.20;82.80;;;;;;5026391;28;20294;-70
2022/09/22 05:57:33;;;;;;;12.03;5.23;;;12.40;82.60;;;;;;5012234;28;20538;-70
2022/09/22 06:00:01;;;;;;;5.80;4.87;;;12.50;82.10;;;;;;5025081;28;20689;-70
2022/09/22 06:02:38;;;;;;;6.83;4.63;;;12.70;81.80;;;;;;5024582;28;20203;-70
2022/09/22 06:05:05;;;;;;;8.07;4.83;;;12.80;81.40;;;;;;5028345;28;20214;-70
2022/09/22 06:07:32;;;;;;;7.53;5.07;;;12.90;81.00;;;;;;5024075;28;20203;-70
2022/09/22 06:09:59;;;;;;;6.10;5.20;;;13.00;80.60;;;;;;5020900;28;20206;-70
2022/09/22 06:12:28;;;;;;;7.93;5.33;;;13.10;80.30;;;;;;5023002;28;20208;-70
2022/09/22 06:14:55;;;;;;;4.97;4.47;;;13.20;80.20;;;;;;5025598;28;20216;-70
2022/09/22 06:17:22;;;;;;;5.70;4.53;;;13.20;79.80;;;;;;5006756;28;20209;-70
2022/09/22 06:19:49;;;;;;;6.33;5.10;;;13.30;80.00;;;;;;5021924;28;20212;-70
2022/09/22 06:22:17;;;;;;;7.30;4.87;;;13.40;79.30;;;;;;5023848;28;20286;-70
2022/09/22 06:24:45;;;;;;;5.77;4.80;;;13.50;79.20;;;;;;5024397;28;20210;-70
2022/09/22 06:27:12;;;;;;;10.10;4.97;;;13.60;79.00;;;;;;5022919;28;20197;-70
2022/09/22 06:29:40;;;;;;;13.97;5.53;;;13.70;78.80;;;;;;5025931;28;20201;-70
2022/09/22 06:32:08;;;;;;;7.67;6.20;;;13.80;78.60;;;;;;5033296;28;20243;-70
2022/09/22 06:34:35;;;;;;;7.10;5.30;;;13.80;78.30;;;;;;5022514;28;20241;-70
2022/09/22 06:37:06;;;;;;;10.13;6.07;;;13.90;77.80;;;;;;5025112;28;20758;-70
2022/09/22 06:39:36;;;;;;;11.60;5.50;;;14.00;77.50;;;;;;5025893;28;20213;-70
2022/09/22 06:42:04;;;;;;;10.00;5.63;;;14.10;77.20;;;;;;5027221;28;20209;-70
2022/09/22 06:44:32;;;;;;;10.60;6.77;;;14.10;77.00;;;;;;5024380;28;20696;-70
2022/09/22 06:47:04;;;;;;;6.43;5.70;;;14.20;76.80;;;;;;5028123;28;20283;-70
2022/09/22 06:49:31;;;;;;;7.30;5.67;;;14.30;76.60;;;;;;5025004;28;20657;-70
2022/09/22 06:51:58;;;;;;;8.30;5.70;;;14.30;76.40;;;;;;5024881;28;20198;-70
2022/09/22 06:54:25;;;;;;;9.33;5.50;;;14.30;76.10;;;;;;5009779;28;20221;-70
2022/09/22 06:56:52;;;;;;;6.17;4.97;;;14.40;75.80;;;;;;5022820;28;20664;-71
2022/09/22 06:59:19;;;;;;;10.23;5.03;;;14.50;75.60;;;;;;5032380;28;20231;-70
2022/09/22 07:01:47;;;;;;;8.67;5.30;;;14.60;75.60;;;;;;5023916;28;20194;-70
2022/09/22 07:04:16;;;;;;;12.53;5.80;;;14.60;75.40;;;;;;5026113;28;20312;-70
2022/09/22 07:06:44;;;;;;;6.10;5.10;;;14.60;75.20;;;;;;5026977;28;20289;-70
2022/09/22 07:09:11;;;;;;;8.97;5.30;;;14.70;75.00;;;;;;5006264;28;20610;-70
2022/09/22 07:11:38;;;;;;;8.37;5.60;;;14.70;74.80;;;;;;5021425;28;20248;-71
2022/09/22 07:14:07;;;;;;;8.30;5.13;;;14.80;75.10;;;;;;5023139;28;20202;-71
2022/09/22 07:16:35;;;;;;;11.60;5.50;;;14.90;75.50;;;;;;5025560;28;20225;-70
2022/09/22 07:19:04;;;;;;;6.73;5.37;;;14.90;75.40;;;;;;5024537;28;20238;-70
2022/09/22 07:21:35;;;;;;;11.90;5.10;;;15.00;75.00;;;;;;5025733;28;20649;-70
2022/09/22 07:24:03;;;;;;;14.63;6.20;;;15.10;74.60;;;;;;5026099;28;20570;-70
2022/09/22 07:26:32;;;;;;;12.07;5.60;;;15.20;74.40;;;;;;5028606;28;20245;-70
2022/09/22 07:29:03;;;;;;;16.50;5.90;;;15.30;74.20;;;;;;5012938;28;20295;-70
2022/09/22 07:31:33;;;;;;;7.47;5.23;;;15.40;74.10;;;;;;5024715;28;20210;-70
2022/09/22 07:34:01;;;;;;;9.53;4.70;;;15.60;73.50;;;;;;5023319;28;20210;-70
2022/09/22 07:36:30;;;;;;;5.47;4.90;;;15.80;71.80;;;;;;5029032;28;20318;-70
2022/09/22 07:39:11;;;;;;;11.53;4.73;;;16.00;71.50;;;;;;5023158;28;20325;-71
2022/09/22 07:41:42;;;;;;;8.30;4.80;;;16.10;71.40;;;;;;5021473;28;20705;-70
2022/09/22 07:46:57;;;;;;;8.63;4.67;;;16.40;70.90;;;;;;5017033;28;20195;-70
2022/09/22 07:49:24;;;;;;;4.93;4.17;;;16.50;70.50;;;;;;5021787;28;20199;-71
2022/09/22 07:51:56;;;;;;;7.30;4.60;;;16.70;69.10;;;;;;5021226;28;20334;-71
2022/09/22 07:54:25;;;;;;;5.80;5.20;;;16.80;67.80;;;;;;5027514;28;20246;-71
2022/09/22 07:56:56;;;;;;;10.20;5.00;;;16.90;67.90;;;;;;5031463;28;20211;-71
2022/09/22 07:59:25;;;;;;;7.00;4.90;;;17.00;68.30;;;;;;5046302;28;20215;-71
2022/09/22 08:01:52;;;;;;;6.93;5.37;;;17.30;68.10;;;;;;5027597;28;20211;-71
2022/09/22 08:04:25;;;;;;;6.23;4.50;;;17.40;68.00;;;;;;5027245;28;20640;-71
2022/09/22 08:06:54;;;;;;;5.43;4.30;;;17.70;67.50;;;;;;5029181;28;20217;-71
2022/09/22 08:09:23;;;;;;;5.20;4.30;;;17.80;66.60;;;;;;5030074;28;20203;-71
2022/09/22 08:11:51;;;;;;;5.00;3.73;;;17.90;64.40;;;;;;5015407;28;20216;-71
2022/09/22 08:14:22;;;;;;;4.40;4.00;;;17.90;64.80;;;;;;5026645;28;20245;-71
2022/09/22 08:16:52;;;;;;;5.67;3.63;;;17.90;64.60;;;;;;5021445;28;20219;-71
2022/09/22 08:19:22;;;;;;;6.10;3.90;;;17.90;64.50;;;;;;5025244;28;20960;-71
2022/09/22 08:21:51;;;;;;;4.77;3.60;;;18.00;64.70;;;;;;5022850;28;20204;-71
2022/09/22 08:24:20;;;;;;;4.53;3.63;;;18.20;64.60;;;;;;5031815;28;20230;-71
2022/09/22 08:26:49;;;;;;;7.17;4.07;;;18.30;64.50;;;;;;5028456;28;20196;-71
2022/09/22 08:29:16;;;;;;;4.27;3.40;;;18.60;63.80;;;;;;5027308;28;20231;-71
2022/09/22 08:31:46;;;;;;;4.83;3.40;;;18.80;62.90;;;;;;5029949;28;20219;-71
2022/09/22 08:34:15;;;;;;;5.43;3.70;;;19.00;61.70;;;;;;5030467;28;20197;-71
2022/09/22 08:36:47;;;;;;;5.37;3.20;;;19.10;60.20;;;;;;5029360;28;20244;-71
2022/09/22 08:39:18;;;;;;;6.07;3.97;;;19.20;60.40;;;;;;5024335;28;20240;-72
2022/09/22 08:42:17;;;;;;;4.27;3.30;;;19.30;60.40;;;;;;5024431;28;20290;-71
2022/09/22 08:45:09;;;;;;;7.30;3.60;;;19.50;60.20;;;;;;5012217;28;20202;-71
2022/09/22 08:53:34;;;;;;;3.77;3.10;;;19.90;58.90;;;;;;5022503;28;20206;-71
2022/09/22 08:56:30;;;;;;;7.13;3.57;;;20.00;58.10;;;;;;5026178;28;20288;-72
2022/09/22 08:59:11;;;;;;;3.33;2.57;;;20.20;58.20;;;;;;5028045;28;20229;-71
2022/09/22 09:01:41;;;;;;;4.73;3.00;;;20.40;57.00;;;;;;5026694;28;20631;-71
2022/09/22 09:04:27;;;;;;;4.17;2.60;;;20.50;55.90;;;;;;5030792;28;20566;-71
2022/09/22 09:07:28;;;;;;;4.27;2.90;;;20.60;56.30;;;;;;5027474;28;20267;-71
2022/09/22 09:10:13;;;;;;;9.03;4.90;;;20.70;55.80;;;;;;5020107;28;20221;-72
2022/09/22 09:12:52;;;;;;;4.87;2.80;;;20.80;55.60;;;;;;5029029;28;20202;-72
2022/09/22 09:15:30;;;;;;;4.07;2.70;;;20.90;54.40;;;;;;5026212;28;20238;-71
2022/09/22 09:18:02;;;;;;;3.90;3.10;;;21.00;54.40;;;;;;5033519;28;20236;-71
2022/09/22 09:20:29;;;;;;;4.70;3.37;;;21.10;54.00;;;;;;5031825;28;20585;-72
2022/09/22 09:22:59;;;;;;;5.60;2.43;;;21.30;54.40;;;;;;5028444;28;20592;-72
2022/09/22 09:25:40;;;;;;;2.77;2.43;;;21.50;54.00;;;;;;5023241;28;20211;-72
2022/09/22 09:28:18;;;;;;;2.73;2.30;;;21.60;53.20;;;;;;5026936;28;20269;-72
2022/09/22 09:30:55;;;;;;;3.27;2.60;;;21.70;52.10;;;;;;5027215;28;20229;-72
2022/09/22 09:33:28;;;;;;;3.20;2.60;;;21.80;51.40;;;;;;5030455;28;20207;-72
2022/09/22 09:35:57;;;;;;;3.13;2.80;;;21.90;51.90;;;;;;5028503;28;20223;-72
2022/09/22 09:38:29;;;;;;;4.00;2.27;;;22.00;51.80;;;;;;5027145;28;20254;-72
2022/09/22 09:41:23;;;;;;;5.83;2.93;;;22.10;51.40;;;;;;5027266;28;20269;-72
2022/09/22 09:43:53;;;;;;;3.53;2.23;;;22.30;50.90;;;;;;5023542;28;20220;-71
2022/09/22 09:46:47;;;;;;;7.17;2.50;;;22.40;50.90;;;;;;5017324;28;20212;-72
2022/09/22 09:49:16;;;;;;;4.97;2.40;;;22.50;49.70;;;;;;5018709;28;20261;-71
2022/09/22 09:51:47;;;;;;;2.67;2.17;;;22.60;49.60;;;;;;5022299;28;20337;-71
2022/09/22 09:54:16;;;;;;;2.30;2.10;;;22.70;49.60;;;;;;5027494;28;20204;-71
2022/09/22 09:57:14;;;;;;;3.27;2.33;;;22.80;49.20;;;;;;5029790;28;20306;-72
2022/09/22 10:02:48;;;;;;;2.17;1.77;;;22.90;49.20;;;;;;5025777;28;20203;-71
2022/09/22 10:05:16;;;;;;;5.37;1.70;;;23.00;48.90;;;;;;5040211;28;20694;-71
2022/09/22 10:07:46;;;;;;;4.03;1.83;;;23.10;48.20;;;;;;5022705;28;20687;-72
2022/09/22 10:10:28;;;;;;;2.80;1.90;;;23.10;48.50;;;;;;5026901;28;20588;-71
2022/09/22 10:13:01;;;;;;;3.37;1.30;;;23.30;48.40;;;;;;5029383;28;20196;-72
2022/09/22 10:15:31;;;;;;;1.20;1.03;;;23.40;47.50;;;;;;5025677;28;20227;-73
2022/09/22 10:17:58;;;;;;;1.90;1.70;;;23.40;46.60;;;;;;5026372;28;20269;-72
2022/09/22 10:20:30;;;;;;;1.73;0.67;;;23.50;46.90;;;;;;5024639;28;20203;-72
2022/09/22 10:23:20;;;;;;;1.60;0.57;;;23.50;45.60;;;;;;5025445;28;20203;-72
2022/09/22 10:25:49;;;;;;;1.27;0.90;;;23.60;44.50;;;;;;5025565;28;20294;-71
2022/09/22 10:28:19;;;;;;;1.97;1.17;;;23.60;45.90;;;;;;5020512;28;20218;-72
2022/09/22 10:31:02;;;;;;;0.93;0.90;;;23.70;46.00;;;;;;5022751;28;20200;-72
2022/09/22 10:33:29;;;;;;;1.17;0.93;;;23.80;46.00;;;;;;5025326;28;20207;-72
2022/09/22 10:36:11;;;;;;;3.53;1.17;;;23.80;45.00;;;;;;5025483;28;20284;-73
2022/09/22 10:38:40;;;;;;;1.43;0.80;;;23.90;45.30;;;;;;5020093;28;20207;-72
2022/09/22 10:41:07;;;;;;;3.60;0.93;;;24.00;45.20;;;;;;5018336;28;20266;-72
2022/09/22 10:43:39;;;;;;;2.10;0.70;;;24.10;45.20;;;;;;5027677;28;20196;-72
2022/09/22 10:46:21;;;;;;;0.80;0.70;;;24.00;44.80;;;;;;5008003;28;20199;-72
2022/09/22 10:49:14;;;;;;;2.10;0.67;;;23.70;45.40;;;;;;5029613;28;20242;-72
2022/09/22 10:52:12;;;;;;;0.70;0.67;;;23.40;45.50;;;;;;5029555;28;20282;-72
2022/09/22 10:55:18;;;;;;;3.10;0.87;;;23.00;45.40;;;;;;5030148;28;20216;-72
2022/09/22 10:58:29;;;;;;;1.07;0.70;;;22.80;46.80;;;;;;5017301;28;20755;-71
2022/09/22 11:01:25;;;;;;;0.83;0.67;;;22.70;45.90;;;;;;5028118;28;20237;-72
2022/09/22 11:04:01;;;;;;;0.80;0.80;;;22.90;45.60;;;;;;5022203;28;20616;-72
2022/09/22 11:13:05;;;;;;;7.93;0.83;;;23.70;44.40;;;;;;5022877;28;20730;-72
2022/09/22 11:15:56;;;;;;;1.93;0.77;;;23.80;43.40;;;;;;5025935;28;20199;-72
2022/09/22 11:18:42;;;;;;;0.93;0.80;;;23.90;43.70;;;;;;5019350;28;20235;-72
2022/09/22 11:21:12;;;;;;;0.60;0.60;;;24.10;44.30;;;;;;5013901;28;20199;-72
2022/09/22 11:24:22;;;;;;;2.23;0.93;;;24.30;44.30;;;;;;5025006;28;20258;-72
2022/09/22 11:27:00;;;;;;;0.70;0.70;;;24.60;42.80;;;;;;5032457;28;20214;-72
2022/09/22 11:30:15;;;;;;;0.60;0.50;;;24.80;42.70;;;;;;5020432;28;20230;-72
2022/09/22 11:33:03;;;;;;;2.00;0.70;;;24.90;41.40;;;;;;5029660;28;20257;-72
2022/09/22 11:35:43;;;;;;;0.60;0.60;;;25.00;41.50;;;;;;5034038;28;20211;-72
2022/09/22 11:38:47;;;;;;;0.70;0.70;;;25.20;41.40;;;;;;5027574;28;20215;-72
2022/09/22 11:41:49;;;;;;;1.63;0.70;;;25.20;42.30;;;;;;5036812;28;20217;-72
2022/09/22 11:44:25;;;;;;;0.73;0.70;;;24.90;42.30;;;;;;5027004;28;20199;-72
2022/09/22 11:47:01;;;;;;;0.73;0.73;;;24.70;42.70;;;;;;5028711;28;20230;-72
2022/09/22 11:49:37;;;;;;;0.80;0.80;;;24.70;43.10;;;;;;5044001;28;20257;-72
2022/09/22 11:52:13;;;;;;;2.30;0.70;;;24.80;42.60;;;;;;5038739;28;20207;-72
2022/09/22 11:54:52;;;;;;;0.60;0.60;;;25.00;41.10;;;;;;5030717;28;20245;-72
2022/09/22 11:57:23;;;;;;;0.87;0.77;;;25.00;41.20;;;;;;5030567;28;20222;-72
2022/09/22 11:59:57;;;;;;;0.60;0.60;;;24.90;41.50;;;;;;5029183;28;20215;-73
2022/09/22 12:02:39;;;;;;;0.70;0.70;;;24.80;41.60;;;;;;5028027;28;20206;-72
2022/09/22 12:05:20;;;;;;;2.10;0.77;;;24.70;41.30;;;;;;5032921;28;20659;-72
2022/09/22 12:07:53;;;;;;;0.63;0.63;;;24.60;42.20;;;;;;5030317;28;20199;-72
2022/09/22 12:10:28;;;;;;;1.13;0.70;;;24.50;40.70;;;;;;5030993;28;20686;-72
2022/09/22 12:12:56;;;;;;;0.77;0.70;;;24.20;41.10;;;;;;5025451;28;20199;-72
2022/09/22 12:15:34;;;;;;;2.13;0.60;;;23.80;42.10;;;;;;5031754;28;20662;-72
2022/09/22 12:18:15;;;;;;;1.30;0.90;;;23.40;42.30;;;;;;5031351;28;20326;-72
2022/09/22 12:21:04;;;;;;;2.10;0.90;;;23.00;42.10;;;;;;5031317;28;20207;-72
2022/09/22 12:23:44;;;;;;;0.77;0.70;;;22.70;43.20;;;;;;5033312;28;20207;-73
2022/09/22 12:26:36;;;;;;;1.30;0.97;;;22.50;44.30;;;;;;5032543;28;20203;-72
2022/09/22 12:29:09;;;;;;;2.37;0.70;;;22.30;44.90;;;;;;5032036;28;20228;-72
2022/09/22 12:31:41;;;;;;;0.57;0.50;;;22.10;45.30;;;;;;5037124;28;20222;-69
2022/09/22 12:34:24;;;;;;;0.70;0.70;;;21.90;45.40;;;;;;5024926;28;20214;-69
2022/09/22 12:36:55;;;;;;;2.10;0.80;;;21.90;45.60;;;;;;5027507;28;20227;-69
2022/09/22 12:39:26;;;;;;;2.40;0.70;;;21.80;45.90;;;;;;5024195;28;20215;-69
2022/09/22 12:41:58;;;;;;;2.40;0.80;;;21.70;45.90;;;;;;5022963;28;20207;-69
2022/09/22 12:44:30;;;;;;;0.90;0.60;;;21.70;45.90;;;;;;5025860;28;20210;-71
2022/09/22 12:47:14;;;;;;;0.77;0.77;;;21.80;45.50;;;;;;5025400;28;20204;-69
2022/09/22 12:49:50;;;;;;;0.60;0.50;;;22.00;44.10;;;;;;5022595;28;20215;-69
2022/09/22 12:52:39;;;;;;;3.70;0.70;;;22.20;44.80;;;;;;5029778;28;20290;-70
2022/09/22 12:55:28;;;;;;;1.27;0.60;;;22.20;44.70;;;;;;5020437;28;20220;-69
2022/09/22 12:57:57;;;;;;;1.70;0.50;;;22.40;44.30;;;;;;5022292;28;20212;-69
2022/09/22 13:00:39;;;;;;;4.27;0.80;;;22.60;42.00;;;;;;5027996;28;20541;-68
2022/09/22 13:03:25;;;;;;;1.43;0.87;;;22.70;41.70;;;;;;5039256;28;20204;-70
2022/09/22 13:06:02;;;;;;;0.80;0.80;;;22.90;41.80;;;;;;5019974;28;20210;-70
2022/09/22 13:08:32;;;;;;;0.97;0.60;;;23.10;42.30;;;;;;5023793;28;20203;-69
2022/09/22 13:11:08;;;;;;;1.10;0.90;;;23.30;43.10;;;;;;5028808;28;20200;-70
2022/09/22 13:13:49;;;;;;;2.07;0.60;;;23.40;42.40;;;;;;5021889;28;20192;-69
2022/09/22 13:16:16;;;;;;;1.17;0.70;;;23.50;41.80;;;;;;5014362;28;20231;-70
2022/09/22 13:18:51;;;;;;;1.33;0.60;;;23.50;42.40;;;;;;5021607;28;20333;-69
2022/09/22 13:21:27;;;;;;;1.23;0.70;;;23.60;42.50;;;;;;5025997;28;20207;-69
2022/09/22 13:23:56;;;;;;;0.80;0.80;;;23.70;42.60;;;;;;5029367;28;20211;-70
2022/09/22 13:26:29;;;;;;;3.07;0.60;;;23.80;42.40;;;;;;5024726;28;20207;-69
2022/09/22 13:29:16;;;;;;;1.37;0.60;;;23.80;42.20;;;;;;5025096;28;20204;-70
2022/09/22 13:31:50;;;;;;;0.63;0.63;;;23.80;41.90;;;;;;5026894;28;20199;-69
2022/09/22 13:34:29;;;;;;;1.93;0.83;;;23.80;41.60;;;;;;5025343;28;20214;-69
2022/09/22 13:36:59;;;;;;;1.30;0.70;;;23.80;40.40;;;;;;5034324;28;20237;-69